ITY1742 EHAM-LOWI
Flight info
| Callsign | ITY1742 |
|---|---|
| Flight time | N/A |
| Altitude | 37000 |
| Route | EDUPO Z739 MISGO DCT ASBON DCT TUSUK DCT ULNOK L607 TEDGO/N0427F350 DCT BATUB/N0399F310 M738 MADEB MADEB1B |
| Aircraft | A320/M-SDE3FGHIRWY/LB1 |
Departure
| Time | 2026-05-07 12:25 |
|---|---|
| Airport | Amsterdam Airport Schiphol (EHAM) |
Arrival
| Time | N/A |
|---|---|
| Airport | Innsbruck Airport (LOWI) |
| Time | Latitude | Longitude | Altitude | Speed | Heading |
|---|---|---|---|---|---|
| 2026-05-07 12:00 | 52.30745 | 4.76897 | -1 ft | 0 kts | 50° |
| 2026-05-07 12:14 | 52.30744 | 4.76894 | 0 ft | 3 kts | 50° |
| 2026-05-07 12:14 | 52.30727 | 4.76861 | 0 ft | 4 kts | 51° |
| 2026-05-07 12:14 | 52.30715 | 4.76837 | 0 ft | 2 kts | 84° |
| 2026-05-07 12:14 | 52.30716 | 4.76797 | 0 ft | 4 kts | 96° |
| 2026-05-07 12:15 | 52.30715 | 4.76798 | 0 ft | 3 kts | 103° |
| 2026-05-07 12:15 | 52.30704 | 4.76822 | 0 ft | 2 kts | 136° |
| 2026-05-07 12:15 | 52.30693 | 4.76834 | 0 ft | 2 kts | 145° |
| 2026-05-07 12:15 | 52.30684 | 4.76844 | 0 ft | 1 kts | 148° |
| 2026-05-07 12:16 | 52.30683 | 4.76844 | -1 ft | 0 kts | 148° |
| 2026-05-07 12:17 | 52.30673 | 4.76854 | -1 ft | 2 kts | 148° |
| 2026-05-07 12:18 | 52.30643 | 4.76869 | -1 ft | 8 kts | 176° |
| 2026-05-07 12:18 | 52.30588 | 4.76883 | -1 ft | 8 kts | 151° |
| 2026-05-07 12:18 | 52.30536 | 4.76941 | -1 ft | 12 kts | 147° |
| 2026-05-07 12:18 | 52.30464 | 4.76956 | -1 ft | 10 kts | 213° |
| 2026-05-07 12:19 | 52.30426 | 4.76862 | -1 ft | 10 kts | 238° |
| 2026-05-07 12:19 | 52.30392 | 4.76775 | -1 ft | 9 kts | 238° |
| 2026-05-07 12:19 | 52.30356 | 4.76679 | -1 ft | 12 kts | 238° |
| 2026-05-07 12:19 | 52.30303 | 4.76542 | -1 ft | 15 kts | 237° |
| 2026-05-07 12:20 | 52.30248 | 4.76399 | -1 ft | 14 kts | 238° |
| 2026-05-07 12:20 | 52.30198 | 4.76269 | -1 ft | 13 kts | 238° |
| 2026-05-07 12:20 | 52.30153 | 4.76151 | -1 ft | 12 kts | 238° |
| 2026-05-07 12:20 | 52.30110 | 4.76039 | -1 ft | 12 kts | 238° |
| 2026-05-07 12:21 | 52.30056 | 4.75898 | -1 ft | 17 kts | 238° |
| 2026-05-07 12:21 | 52.29986 | 4.75715 | -1 ft | 19 kts | 238° |
| 2026-05-07 12:21 | 52.29917 | 4.75537 | -1 ft | 18 kts | 238° |
| 2026-05-07 12:21 | 52.29855 | 4.75376 | -1 ft | 16 kts | 239° |
| 2026-05-07 12:22 | 52.29843 | 4.75202 | -1 ft | 17 kts | 295° |
| 2026-05-07 12:22 | 52.29925 | 4.75040 | -1 ft | 19 kts | 311° |
| 2026-05-07 12:22 | 52.30019 | 4.74867 | -1 ft | 21 kts | 312° |
| 2026-05-07 12:22 | 52.30118 | 4.74687 | 7 ft | 19 kts | 308° |
| 2026-05-07 12:23 | 52.30201 | 4.74529 | 10 ft | 19 kts | 311° |
| 2026-05-07 12:23 | 52.30288 | 4.74369 | 9 ft | 20 kts | 310° |
| 2026-05-07 12:23 | 52.30368 | 4.74206 | -1 ft | 15 kts | 296° |
| 2026-05-07 12:23 | 52.30340 | 4.74059 | -1 ft | 15 kts | 224° |
| 2026-05-07 12:24 | 52.30260 | 4.73959 | -1 ft | 14 kts | 217° |
| 2026-05-07 12:24 | 52.30192 | 4.73854 | -2 ft | 14 kts | 247° |
| 2026-05-07 12:24 | 52.30212 | 4.73746 | -2 ft | 8 kts | 331° |
| 2026-05-07 12:24 | 52.30293 | 4.73747 | -4 ft | 23 kts | 4° |
| 2026-05-07 12:25 | 52.30719 | 4.73785 | -1 ft | 97 kts | 360° |
| 2026-05-07 12:25 | 52.31599 | 4.73868 | 0 ft | 154 kts | 5° |
| 2026-05-07 12:25 | 52.32742 | 4.73972 | 487 ft | 165 kts | 5° |
| 2026-05-07 12:25 | 52.33852 | 4.74400 | 1325 ft | 164 kts | 20° |
| 2026-05-07 12:26 | 52.34968 | 4.75091 | 1926 ft | 182 kts | 21° |
| 2026-05-07 12:26 | 52.36207 | 4.75868 | 2420 ft | 201 kts | 21° |
| 2026-05-07 12:26 | 52.37585 | 4.76771 | 2924 ft | 225 kts | 27° |
| 2026-05-07 12:26 | 52.38819 | 4.78460 | 3494 ft | 247 kts | 46° |
| 2026-05-07 12:27 | 52.40049 | 4.80585 | 4374 ft | 258 kts | 46° |
| 2026-05-07 12:27 | 52.41154 | 4.82875 | 5346 ft | 265 kts | 63° |
| 2026-05-07 12:27 | 52.41629 | 4.85796 | 6299 ft | 271 kts | 89° |
| 2026-05-07 12:27 | 52.41239 | 4.88815 | 7224 ft | 275 kts | 117° |
| 2026-05-07 12:28 | 52.40161 | 4.91425 | 8197 ft | 278 kts | 127° |
| 2026-05-07 12:28 | 52.38991 | 4.93973 | 9153 ft | 282 kts | 128° |
| 2026-05-07 12:28 | 52.37799 | 4.96561 | 10110 ft | 286 kts | 128° |
| 2026-05-07 12:28 | 52.36563 | 4.99244 | 10602 ft | 307 kts | 128° |
| 2026-05-07 12:29 | 52.35238 | 5.02120 | 11109 ft | 323 kts | 127° |
| 2026-05-07 12:29 | 52.33873 | 5.05098 | 11890 ft | 330 kts | 127° |
| 2026-05-07 12:29 | 52.32488 | 5.08125 | 12721 ft | 335 kts | 127° |
| 2026-05-07 12:29 | 52.31084 | 5.11192 | 13542 ft | 340 kts | 127° |
| 2026-05-07 12:30 | 52.29652 | 5.14320 | 14295 ft | 345 kts | 127° |
| 2026-05-07 12:30 | 52.28205 | 5.17470 | 15010 ft | 349 kts | 127° |
| 2026-05-07 12:30 | 52.26739 | 5.20649 | 15717 ft | 353 kts | 127° |
| 2026-05-07 12:30 | 52.25250 | 5.23874 | 16428 ft | 357 kts | 127° |
| 2026-05-07 12:31 | 52.23751 | 5.27138 | 17168 ft | 361 kts | 127° |
| 2026-05-07 12:31 | 52.22270 | 5.30476 | 17896 ft | 366 kts | 126° |
| 2026-05-07 12:31 | 52.20812 | 5.33842 | 18562 ft | 370 kts | 126° |
| 2026-05-07 12:31 | 52.19425 | 5.37080 | 19136 ft | 373 kts | 125° |
| 2026-05-07 12:32 | 52.17915 | 5.40606 | 19764 ft | 376 kts | 126° |
| 2026-05-07 12:32 | 52.16425 | 5.44066 | 20371 ft | 380 kts | 126° |
| 2026-05-07 12:32 | 52.14894 | 5.47600 | 20996 ft | 383 kts | 126° |
| 2026-05-07 12:32 | 52.13351 | 5.51148 | 21604 ft | 386 kts | 126° |
| 2026-05-07 12:33 | 52.10211 | 5.58320 | 22762 ft | 391 kts | 127° |
| 2026-05-07 12:33 | 52.08623 | 5.61931 | 23361 ft | 394 kts | 126° |
| 2026-05-07 12:33 | 52.07018 | 5.65578 | 23882 ft | 397 kts | 126° |
| 2026-05-07 12:34 | 52.05314 | 5.69129 | 24352 ft | 399 kts | 132° |
| 2026-05-07 12:34 | 52.03488 | 5.72546 | 24825 ft | 402 kts | 132° |
| 2026-05-07 12:34 | 52.01645 | 5.75977 | 25277 ft | 404 kts | 132° |
| 2026-05-07 12:34 | 51.99791 | 5.79426 | 25743 ft | 407 kts | 132° |
| 2026-05-07 12:35 | 51.97922 | 5.82905 | 26195 ft | 409 kts | 132° |
| 2026-05-07 12:35 | 51.96048 | 5.86393 | 26630 ft | 412 kts | 132° |
| 2026-05-07 12:35 | 51.94161 | 5.89915 | 27077 ft | 415 kts | 132° |
| 2026-05-07 12:35 | 51.92288 | 5.93411 | 27514 ft | 417 kts | 132° |
| 2026-05-07 12:36 | 51.90377 | 5.96970 | 27937 ft | 420 kts | 132° |
| 2026-05-07 12:36 | 51.88455 | 6.00547 | 28352 ft | 422 kts | 132° |
| 2026-05-07 12:36 | 51.86519 | 6.04148 | 28769 ft | 425 kts | 132° |
| 2026-05-07 12:36 | 51.84563 | 6.07770 | 29173 ft | 428 kts | 132° |
| 2026-05-07 12:37 | 51.82593 | 6.11394 | 29573 ft | 430 kts | 132° |
| 2026-05-07 12:37 | 51.80605 | 6.15037 | 29971 ft | 433 kts | 132° |
| 2026-05-07 12:37 | 51.78602 | 6.18694 | 30317 ft | 436 kts | 132° |
| 2026-05-07 12:37 | 51.76591 | 6.22367 | 30628 ft | 439 kts | 132° |
| 2026-05-07 12:38 | 51.74560 | 6.26080 | 30941 ft | 441 kts | 132° |
| 2026-05-07 12:38 | 51.73209 | 6.28549 | 31133 ft | 443 kts | 132° |
| 2026-05-07 12:38 | 51.70494 | 6.33507 | 31534 ft | 446 kts | 132° |
| 2026-05-07 12:38 | 51.68436 | 6.37260 | 31864 ft | 447 kts | 132° |
| 2026-05-07 12:39 | 51.66366 | 6.41015 | 32287 ft | 447 kts | 133° |
| 2026-05-07 12:39 | 51.65001 | 6.43484 | 32562 ft | 446 kts | 133° |
| 2026-05-07 12:39 | 51.62939 | 6.47213 | 32969 ft | 446 kts | 133° |
| 2026-05-07 12:39 | 51.60876 | 6.50943 | 33389 ft | 445 kts | 133° |
| 2026-05-07 12:40 | 51.58818 | 6.54665 | 33807 ft | 445 kts | 132° |
| 2026-05-07 12:40 | 51.56759 | 6.58388 | 34197 ft | 445 kts | 133° |
| 2026-05-07 12:40 | 51.54699 | 6.62101 | 34520 ft | 445 kts | 133° |
| 2026-05-07 12:40 | 51.52636 | 6.65808 | 34827 ft | 445 kts | 133° |
| 2026-05-07 12:41 | 51.50578 | 6.69507 | 35134 ft | 445 kts | 133° |
| 2026-05-07 12:41 | 51.48509 | 6.73222 | 35438 ft | 445 kts | 133° |
| 2026-05-07 12:41 | 51.46441 | 6.76926 | 35721 ft | 445 kts | 133° |
| 2026-05-07 12:41 | 51.44394 | 6.80582 | 36016 ft | 446 kts | 133° |
| 2026-05-07 12:42 | 51.42327 | 6.84268 | 36301 ft | 445 kts | 133° |
| 2026-05-07 12:42 | 51.40088 | 6.87705 | 36564 ft | 444 kts | 142° |
| 2026-05-07 12:42 | 51.37569 | 6.90531 | 36830 ft | 443 kts | 149° |
| 2026-05-07 12:42 | 51.34956 | 6.93149 | 37020 ft | 443 kts | 149° |
| 2026-05-07 12:43 | 51.29764 | 6.98366 | 37055 ft | 438 kts | 149° |
| 2026-05-07 12:43 | 51.24611 | 7.03550 | 37054 ft | 437 kts | 149° |
| 2026-05-07 12:44 | 51.19556 | 7.08614 | 37052 ft | 437 kts | 149° |
| 2026-05-07 12:44 | 51.14392 | 7.13757 | 37051 ft | 437 kts | 149° |
| 2026-05-07 12:45 | 51.09259 | 7.18863 | 37055 ft | 438 kts | 149° |
| 2026-05-07 12:45 | 51.04092 | 7.23996 | 37055 ft | 438 kts | 149° |
| 2026-05-07 12:46 | 50.98924 | 7.29128 | 37057 ft | 438 kts | 149° |
| 2026-05-07 12:46 | 50.93753 | 7.34239 | 37059 ft | 438 kts | 149° |
| 2026-05-07 12:47 | 50.88576 | 7.39328 | 37059 ft | 438 kts | 149° |
| 2026-05-07 12:47 | 50.83401 | 7.44408 | 37056 ft | 438 kts | 149° |
| 2026-05-07 12:48 | 50.78189 | 7.49525 | 37062 ft | 439 kts | 149° |
| 2026-05-07 12:48 | 50.73000 | 7.54598 | 37054 ft | 439 kts | 149° |
| 2026-05-07 12:49 | 50.67887 | 7.59735 | 37051 ft | 439 kts | 148° |
| 2026-05-07 12:49 | 50.62794 | 7.65073 | 37056 ft | 439 kts | 147° |
| 2026-05-07 12:50 | 50.57705 | 7.70405 | 37039 ft | 439 kts | 148° |
| 2026-05-07 12:50 | 50.52598 | 7.75678 | 37043 ft | 439 kts | 148° |
| 2026-05-07 12:51 | 50.47476 | 7.80920 | 37047 ft | 439 kts | 148° |
| 2026-05-07 12:51 | 50.42359 | 7.86155 | 37047 ft | 439 kts | 148° |
| 2026-05-07 12:52 | 50.37235 | 7.91390 | 37054 ft | 439 kts | 148° |
| 2026-05-07 12:52 | 50.32152 | 7.96573 | 37046 ft | 439 kts | 148° |
| 2026-05-07 12:53 | 50.27030 | 8.01784 | 37034 ft | 439 kts | 148° |
| 2026-05-07 12:53 | 50.21902 | 8.06981 | 37045 ft | 439 kts | 148° |
| 2026-05-07 12:54 | 50.16838 | 8.12106 | 37037 ft | 439 kts | 148° |
| 2026-05-07 12:54 | 50.11705 | 8.17234 | 37036 ft | 439 kts | 149° |
| 2026-05-07 12:55 | 50.06574 | 8.22031 | 37045 ft | 439 kts | 151° |
| 2026-05-07 12:55 | 50.01298 | 8.26810 | 37042 ft | 439 kts | 151° |
| 2026-05-07 12:56 | 49.96033 | 8.31621 | 37045 ft | 439 kts | 151° |
| 2026-05-07 12:56 | 49.90776 | 8.36464 | 37040 ft | 439 kts | 151° |
| 2026-05-07 12:57 | 49.85540 | 8.41371 | 37030 ft | 440 kts | 146° |
| 2026-05-07 12:57 | 49.80975 | 8.47599 | 37040 ft | 441 kts | 138° |
| 2026-05-07 12:58 | 49.76503 | 8.54111 | 37032 ft | 442 kts | 138° |
| 2026-05-07 12:58 | 49.71781 | 8.59586 | 37028 ft | 438 kts | 155° |
| 2026-05-07 12:59 | 49.66055 | 8.62503 | 37028 ft | 432 kts | 172° |
| 2026-05-07 12:59 | 49.60104 | 8.64121 | 37049 ft | 439 kts | 172° |
| 2026-05-07 13:00 | 49.53987 | 8.65830 | 37053 ft | 452 kts | 171° |
| 2026-05-07 13:00 | 49.47733 | 8.67630 | 37055 ft | 460 kts | 167° |
| 2026-05-07 13:01 | 49.41787 | 8.71222 | 37051 ft | 464 kts | 157° |
| 2026-05-07 13:01 | 49.35985 | 8.75274 | 37049 ft | 464 kts | 158° |
| 2026-05-07 13:02 | 49.30085 | 8.79367 | 37041 ft | 465 kts | 158° |
| 2026-05-07 13:02 | 49.24197 | 8.83427 | 37035 ft | 465 kts | 158° |
| 2026-05-07 13:03 | 49.18293 | 8.87485 | 37028 ft | 465 kts | 158° |
| 2026-05-07 13:03 | 49.12388 | 8.91548 | 37031 ft | 465 kts | 158° |
| 2026-05-07 13:04 | 49.06488 | 8.95603 | 37028 ft | 465 kts | 158° |
| 2026-05-07 13:04 | 49.00588 | 8.99643 | 37026 ft | 465 kts | 158° |
| 2026-05-07 13:05 | 48.95219 | 9.03315 | 37025 ft | 465 kts | 158° |
| 2026-05-07 13:05 | 48.89418 | 9.07272 | 37025 ft | 464 kts | 158° |
| 2026-05-07 13:06 | 48.83547 | 9.11265 | 37021 ft | 464 kts | 158° |
| 2026-05-07 13:06 | 48.77608 | 9.15291 | 37018 ft | 465 kts | 158° |
| 2026-05-07 13:07 | 48.71735 | 9.19258 | 37020 ft | 465 kts | 158° |
| 2026-05-07 13:07 | 48.65863 | 9.23212 | 37023 ft | 465 kts | 158° |
| 2026-05-07 13:08 | 48.59886 | 9.26939 | 37027 ft | 463 kts | 163° |
| 2026-05-07 13:08 | 48.53807 | 9.30058 | 37020 ft | 463 kts | 163° |
| 2026-05-07 13:09 | 48.47697 | 9.33177 | 37023 ft | 463 kts | 163° |
| 2026-05-07 13:09 | 48.41594 | 9.36299 | 36874 ft | 465 kts | 164° |
| 2026-05-07 13:10 | 48.38546 | 9.37855 | 36568 ft | 457 kts | 164° |
| 2026-05-07 13:10 | 48.35570 | 9.39373 | 36312 ft | 447 kts | 164° |
| 2026-05-07 13:10 | 48.32648 | 9.40859 | 36063 ft | 440 kts | 164° |
| 2026-05-07 13:10 | 48.29751 | 9.42327 | 35813 ft | 438 kts | 164° |
| 2026-05-07 13:11 | 48.26911 | 9.43765 | 35573 ft | 436 kts | 164° |
| 2026-05-07 13:11 | 48.24006 | 9.45242 | 35332 ft | 434 kts | 164° |
| 2026-05-07 13:11 | 48.21185 | 9.46677 | 35092 ft | 432 kts | 164° |
| 2026-05-07 13:11 | 48.18354 | 9.48115 | 34651 ft | 428 kts | 164° |
| 2026-05-07 13:12 | 48.15533 | 9.49539 | 34122 ft | 427 kts | 164° |
| 2026-05-07 13:12 | 48.12723 | 9.50951 | 33530 ft | 425 kts | 164° |
| 2026-05-07 13:12 | 48.09937 | 9.52347 | 33034 ft | 421 kts | 163° |
| 2026-05-07 13:12 | 48.07175 | 9.53734 | 32508 ft | 417 kts | 163° |
| 2026-05-07 13:13 | 48.04428 | 9.55115 | 32010 ft | 414 kts | 163° |
| 2026-05-07 13:13 | 48.01788 | 9.56782 | 31505 ft | 413 kts | 152° |
| 2026-05-07 13:13 | 47.99392 | 9.59114 | 30998 ft | 411 kts | 144° |
| 2026-05-07 13:13 | 47.97095 | 9.61626 | 30506 ft | 408 kts | 144° |
| 2026-05-07 13:14 | 47.94810 | 9.64108 | 29993 ft | 405 kts | 144° |
| 2026-05-07 13:14 | 47.92538 | 9.66564 | 29490 ft | 401 kts | 144° |
| 2026-05-07 13:14 | 47.90294 | 9.68979 | 29048 ft | 395 kts | 144° |
| 2026-05-07 13:15 | 47.89095 | 9.70258 | 28832 ft | 391 kts | 145° |
| 2026-05-07 13:15 | 47.86886 | 9.72617 | 28338 ft | 388 kts | 145° |
| 2026-05-07 13:15 | 47.84711 | 9.74954 | 27898 ft | 383 kts | 145° |
| 2026-05-07 13:15 | 47.82561 | 9.77271 | 27447 ft | 380 kts | 145° |
| 2026-05-07 13:16 | 47.80427 | 9.79571 | 27002 ft | 377 kts | 145° |
| 2026-05-07 13:16 | 47.78334 | 9.81823 | 26543 ft | 375 kts | 145° |
| 2026-05-07 13:16 | 47.76223 | 9.84090 | 26070 ft | 373 kts | 145° |
| 2026-05-07 13:16 | 47.74116 | 9.86346 | 25599 ft | 372 kts | 145° |
| 2026-05-07 13:17 | 47.72019 | 9.88588 | 25108 ft | 372 kts | 146° |
| 2026-05-07 13:17 | 47.69919 | 9.90833 | 24613 ft | 371 kts | 146° |
| 2026-05-07 13:17 | 47.67826 | 9.93070 | 24105 ft | 371 kts | 146° |
| 2026-05-07 13:17 | 47.65732 | 9.95296 | 23591 ft | 370 kts | 146° |
| 2026-05-07 13:18 | 47.63636 | 9.97523 | 23028 ft | 370 kts | 146° |
| 2026-05-07 13:18 | 47.61551 | 9.99734 | 22527 ft | 367 kts | 146° |
| 2026-05-07 13:18 | 47.59475 | 10.01938 | 22040 ft | 366 kts | 146° |
| 2026-05-07 13:18 | 47.57413 | 10.04130 | 21555 ft | 364 kts | 146° |
| 2026-05-07 13:19 | 47.55352 | 10.06319 | 21071 ft | 363 kts | 146° |
| 2026-05-07 13:19 | 47.53301 | 10.08495 | 20590 ft | 362 kts | 146° |
| 2026-05-07 13:19 | 47.51279 | 10.10636 | 20119 ft | 361 kts | 146° |
| 2026-05-07 13:19 | 47.49232 | 10.12801 | 19631 ft | 360 kts | 146° |
| 2026-05-07 13:20 | 47.47200 | 10.14948 | 19168 ft | 359 kts | 146° |
| 2026-05-07 13:20 | 47.45208 | 10.17049 | 18709 ft | 358 kts | 146° |
| 2026-05-07 13:20 | 47.43174 | 10.19161 | 18227 ft | 357 kts | 148° |
| 2026-05-07 13:20 | 47.41092 | 10.21158 | 17722 ft | 355 kts | 150° |
| 2026-05-07 13:21 | 47.38994 | 10.23062 | 17258 ft | 352 kts | 151° |
| 2026-05-07 13:21 | 47.36900 | 10.24921 | 16806 ft | 350 kts | 151° |
| 2026-05-07 13:21 | 47.34868 | 10.26860 | 16352 ft | 349 kts | 143° |
| 2026-05-07 13:21 | 47.33190 | 10.29440 | 15956 ft | 349 kts | 128° |
| 2026-05-07 13:22 | 47.32046 | 10.32590 | 15543 ft | 349 kts | 110° |
| 2026-05-07 13:22 | 47.31452 | 10.36054 | 15112 ft | 349 kts | 101° |
| 2026-05-07 13:22 | 47.30990 | 10.39563 | 14696 ft | 347 kts | 102° |
| 2026-05-07 13:22 | 47.30524 | 10.43010 | 14247 ft | 340 kts | 102° |
| 2026-05-07 13:23 | 47.30059 | 10.46386 | 13735 ft | 331 kts | 102° |
| 2026-05-07 13:23 | 47.29612 | 10.49590 | 13644 ft | 308 kts | 103° |
| 2026-05-07 13:23 | 47.29195 | 10.52583 | 13513 ft | 289 kts | 102° |
| 2026-05-07 13:23 | 47.28798 | 10.55442 | 13388 ft | 282 kts | 102° |
| 2026-05-07 13:24 | 47.28634 | 10.58271 | 13263 ft | 275 kts | 86° |
| 2026-05-07 13:24 | 47.28778 | 10.61002 | 13145 ft | 259 kts | 85° |
| 2026-05-07 13:24 | 47.28913 | 10.63545 | 13060 ft | 245 kts | 86° |
| 2026-05-07 13:24 | 47.29039 | 10.65991 | 12834 ft | 237 kts | 86° |
| 2026-05-07 13:25 | 47.29161 | 10.68417 | 12374 ft | 237 kts | 86° |
| 2026-05-07 13:25 | 47.29281 | 10.70834 | 11995 ft | 235 kts | 86° |
| 2026-05-07 13:25 | 47.29401 | 10.73226 | 11620 ft | 234 kts | 86° |
| 2026-05-07 13:25 | 47.29520 | 10.75602 | 11248 ft | 232 kts | 86° |
| 2026-05-07 13:26 | 47.29641 | 10.77965 | 10884 ft | 230 kts | 86° |
| 2026-05-07 13:26 | 47.29760 | 10.80307 | 10515 ft | 228 kts | 86° |
| 2026-05-07 13:26 | 47.29876 | 10.82617 | 10179 ft | 225 kts | 85° |
| 2026-05-07 13:26 | 47.29989 | 10.84907 | 9823 ft | 223 kts | 85° |
| 2026-05-07 13:27 | 47.30100 | 10.87173 | 9450 ft | 221 kts | 86° |
| 2026-05-07 13:27 | 47.30205 | 10.89313 | 9117 ft | 218 kts | 85° |
| 2026-05-07 13:27 | 47.30313 | 10.91519 | 8771 ft | 214 kts | 85° |
| 2026-05-07 13:27 | 47.30419 | 10.93700 | 8427 ft | 211 kts | 85° |
| 2026-05-07 13:28 | 47.30519 | 10.95812 | 8097 ft | 208 kts | 85° |
| 2026-05-07 13:28 | 47.30620 | 10.97915 | 7775 ft | 205 kts | 85° |
| 2026-05-07 13:28 | 47.30721 | 11.00007 | 7449 ft | 203 kts | 85° |
| 2026-05-07 13:28 | 47.30821 | 11.02067 | 7127 ft | 201 kts | 85° |
| 2026-05-07 13:29 | 47.30918 | 11.04112 | 6808 ft | 199 kts | 85° |
| 2026-05-07 13:29 | 47.30983 | 11.06126 | 6495 ft | 196 kts | 92° |
| 2026-05-07 13:29 | 47.30731 | 11.08089 | 6161 ft | 193 kts | 108° |
| 2026-05-07 13:29 | 47.30215 | 11.09840 | 5858 ft | 180 kts | 114° |
| 2026-05-07 13:30 | 47.29862 | 11.10917 | 5667 ft | 174 kts | 114° |
| 2026-05-07 13:30 | 47.29337 | 11.12493 | 5402 ft | 169 kts | 114° |
| 2026-05-07 13:30 | 47.28652 | 11.14539 | 5066 ft | 168 kts | 114° |
| 2026-05-07 13:30 | 47.28307 | 11.15575 | 4892 ft | 167 kts | 114° |
| 2026-05-07 13:31 | 47.27800 | 11.17100 | 4631 ft | 164 kts | 115° |
| 2026-05-07 13:31 | 47.27301 | 11.18604 | 4357 ft | 163 kts | 115° |
| 2026-05-07 13:31 | 47.26806 | 11.20098 | 4100 ft | 162 kts | 115° |
| 2026-05-07 13:31 | 47.26318 | 11.21567 | 3841 ft | 160 kts | 114° |
| 2026-05-07 13:32 | 47.25844 | 11.22995 | 3587 ft | 151 kts | 115° |
| 2026-05-07 13:32 | 47.25405 | 11.24350 | 3355 ft | 144 kts | 110° |
| 2026-05-07 13:32 | 47.25220 | 11.25350 | 3191 ft | 141 kts | 98° |